sensor_id;sensor_type;location;lat;lon;timestamp;temperature;humidity
11304;DHT22;5707;49.588;12.148;2024-03-02T00:02:24;4.90;99.90
11304;DHT22;5707;49.588;12.148;2024-03-02T00:04:51;4.90;99.90
11304;DHT22;5707;49.588;12.148;2024-03-02T00:07:16;4.90;99.90
11304;DHT22;5707;49.588;12.148;2024-03-02T00:09:42;4.90;99.90
11304;DHT22;5707;49.588;12.148;2024-03-02T00:12:10;4.90;99.90
11304;DHT22;5707;49.588;12.148;2024-03-02T00:14:37;4.80;99.90
11304;DHT22;5707;49.588;12.148;2024-03-02T00:17:02;4.80;99.90
11304;DHT22;5707;49.588;12.148;2024-03-02T00:19:28;4.80;99.90
11304;DHT22;5707;49.588;12.148;2024-03-02T00:21:54;4.90;99.90
11304;DHT22;5707;49.588;12.148;2024-03-02T00:24:34;4.90;99.90
11304;DHT22;5707;49.588;12.148;2024-03-02T00:27:01;4.90;99.90
11304;DHT22;5707;49.588;12.148;2024-03-02T00:29:27;4.90;99.90
11304;DHT22;5707;49.588;12.148;2024-03-02T00:31:54;4.80;99.90
11304;DHT22;5707;49.588;12.148;2024-03-02T00:34:21;4.80;99.90
11304;DHT22;5707;49.588;12.148;2024-03-02T00:36:47;4.90;99.90
11304;DHT22;5707;49.588;12.148;2024-03-02T00:39:15;4.80;99.90
11304;DHT22;5707;49.588;12.148;2024-03-02T00:41:42;4.80;99.90
11304;DHT22;5707;49.588;12.148;2024-03-02T00:44:09;4.80;99.90
11304;DHT22;5707;49.588;12.148;2024-03-02T00:46:37;4.80;99.90
11304;DHT22;5707;49.588;12.148;2024-03-02T00:49:05;4.80;99.90
11304;DHT22;5707;49.588;12.148;2024-03-02T00:51:32;4.70;99.90
11304;DHT22;5707;49.588;12.148;2024-03-02T00:54:00;4.70;99.90
11304;DHT22;5707;49.588;12.148;2024-03-02T00:56:26;4.60;99.90
11304;DHT22;5707;49.588;12.148;2024-03-02T00:58:52;4.60;99.90
11304;DHT22;5707;49.588;12.148;2024-03-02T01:01:18;4.70;99.90
11304;DHT22;5707;49.588;12.148;2024-03-02T01:03:45;4.70;99.90
11304;DHT22;5707;49.588;12.148;2024-03-02T01:06:11;4.70;99.90
11304;DHT22;5707;49.588;12.148;2024-03-02T01:08:37;4.60;99.90
11304;DHT22;5707;49.588;12.148;2024-03-02T01:11:03;4.60;99.90
11304;DHT22;5707;49.588;12.148;2024-03-02T01:13:30;4.60;99.90
11304;DHT22;5707;49.588;12.148;2024-03-02T01:15:56;4.60;99.90
11304;DHT22;5707;49.588;12.148;2024-03-02T01:18:21;4.60;99.90
11304;DHT22;5707;49.588;12.148;2024-03-02T01:20:50;4.60;99.90
11304;DHT22;5707;49.588;12.148;2024-03-02T01:23:18;4.70;99.90
11304;DHT22;5707;49.588;12.148;2024-03-02T01:25:45;4.70;99.90
11304;DHT22;5707;49.588;12.148;2024-03-02T01:28:11;4.70;99.90
11304;DHT22;5707;49.588;12.148;2024-03-02T01:30:37;4.70;99.90
11304;DHT22;5707;49.588;12.148;2024-03-02T01:33:02;4.80;99.90
11304;DHT22;5707;49.588;12.148;2024-03-02T01:35:31;4.90;99.90
11304;DHT22;5707;49.588;12.148;2024-03-02T01:37:56;4.90;99.90
11304;DHT22;5707;49.588;12.148;2024-03-02T01:40:22;5.00;99.90
11304;DHT22;5707;49.588;12.148;2024-03-02T01:42:51;4.90;99.90
11304;DHT22;5707;49.588;12.148;2024-03-02T01:45:17;5.00;99.90
11304;DHT22;5707;49.588;12.148;2024-03-02T01:47:43;4.90;99.90
11304;DHT22;5707;49.588;12.148;2024-03-02T01:50:11;5.00;99.90
11304;DHT22;5707;49.588;12.148;2024-03-02T01:52:36;5.00;99.90
11304;DHT22;5707;49.588;12.148;2024-03-02T01:55:02;5.00;99.90
11304;DHT22;5707;49.588;12.148;2024-03-02T01:57:29;5.00;99.90
11304;DHT22;5707;49.588;12.148;2024-03-02T01:59:55;5.00;99.90
11304;DHT22;5707;49.588;12.148;2024-03-02T02:02:20;5.00;99.90
11304;DHT22;5707;49.588;12.148;2024-03-02T02:04:46;5.00;99.90
11304;DHT22;5707;49.588;12.148;2024-03-02T02:07:12;5.10;99.90
11304;DHT22;5707;49.588;12.148;2024-03-02T02:09:40;5.10;99.90
11304;DHT22;5707;49.588;12.148;2024-03-02T02:12:06;5.10;99.90
11304;DHT22;5707;49.588;12.148;2024-03-02T02:14:33;5.10;99.90
11304;DHT22;5707;49.588;12.148;2024-03-02T02:16:59;5.10;99.90
11304;DHT22;5707;49.588;12.148;2024-03-02T02:19:24;5.10;99.90
11304;DHT22;5707;49.588;12.148;2024-03-02T02:21:50;5.10;99.90
11304;DHT22;5707;49.588;12.148;2024-03-02T02:24:15;5.00;99.90
11304;DHT22;5707;49.588;12.148;2024-03-02T02:26:41;5.10;99.90
11304;DHT22;5707;49.588;12.148;2024-03-02T02:29:06;5.00;99.90
11304;DHT22;5707;49.588;12.148;2024-03-02T02:31:41;5.00;99.90
11304;DHT22;5707;49.588;12.148;2024-03-02T02:34:07;5.00;99.90
11304;DHT22;5707;49.588;12.148;2024-03-02T02:36:38;5.00;99.90
11304;DHT22;5707;49.588;12.148;2024-03-02T02:39:05;5.00;99.90
11304;DHT22;5707;49.588;12.148;2024-03-02T02:41:32;5.00;99.90
11304;DHT22;5707;49.588;12.148;2024-03-02T02:43:58;5.00;99.90
11304;DHT22;5707;49.588;12.148;2024-03-02T02:46:23;5.10;99.90
11304;DHT22;5707;49.588;12.148;2024-03-02T02:48:49;5.10;99.90
11304;DHT22;5707;49.588;12.148;2024-03-02T02:51:16;5.10;99.90
11304;DHT22;5707;49.588;12.148;2024-03-02T02:53:42;5.10;99.90
11304;DHT22;5707;49.588;12.148;2024-03-02T02:56:08;5.10;99.90
11304;DHT22;5707;49.588;12.148;2024-03-02T02:58:33;5.10;99.90
11304;DHT22;5707;49.588;12.148;2024-03-02T03:00:59;5.20;99.90
11304;DHT22;5707;49.588;12.148;2024-03-02T03:03:24;5.20;99.90
11304;DHT22;5707;49.588;12.148;2024-03-02T03:05:50;5.20;99.90
11304;DHT22;5707;49.588;12.148;2024-03-02T03:08:15;5.20;99.90
11304;DHT22;5707;49.588;12.148;2024-03-02T03:10:41;5.20;99.90
11304;DHT22;5707;49.588;12.148;2024-03-02T03:13:07;5.20;99.90
11304;DHT22;5707;49.588;12.148;2024-03-02T03:15:35;5.20;99.90
11304;DHT22;5707;49.588;12.148;2024-03-02T03:18:04;5.20;99.90
11304;DHT22;5707;49.588;12.148;2024-03-02T03:20:30;5.20;99.90
11304;DHT22;5707;49.588;12.148;2024-03-02T03:22:59;5.20;99.90
11304;DHT22;5707;49.588;12.148;2024-03-02T03:25:25;5.30;99.90
11304;DHT22;5707;49.588;12.148;2024-03-02T03:27:51;5.20;99.90
11304;DHT22;5707;49.588;12.148;2024-03-02T03:30:19;5.30;99.90
11304;DHT22;5707;49.588;12.148;2024-03-02T03:32:45;5.30;99.90
11304;DHT22;5707;49.588;12.148;2024-03-02T03:35:10;5.30;99.90
11304;DHT22;5707;49.588;12.148;2024-03-02T03:37:37;5.30;99.90
11304;DHT22;5707;49.588;12.148;2024-03-02T03:40:03;5.30;99.90
11304;DHT22;5707;49.588;12.148;2024-03-02T03:42:38;5.30;99.90
11304;DHT22;5707;49.588;12.148;2024-03-02T03:45:05;5.40;99.90
11304;DHT22;5707;49.588;12.148;2024-03-02T03:47:32;5.40;99.90
11304;DHT22;5707;49.588;12.148;2024-03-02T03:49:57;5.40;99.90
11304;DHT22;5707;49.588;12.148;2024-03-02T03:52:23;5.30;99.90
11304;DHT22;5707;49.588;12.148;2024-03-02T03:54:49;5.40;99.90
11304;DHT22;5707;49.588;12.148;2024-03-02T03:57:14;5.40;99.90
11304;DHT22;5707;49.588;12.148;2024-03-02T03:59:40;5.40;99.90
11304;DHT22;5707;49.588;12.148;2024-03-02T04:02:06;5.40;99.90
11304;DHT22;5707;49.588;12.148;2024-03-02T04:04:32;5.40;99.90
11304;DHT22;5707;49.588;12.148;2024-03-02T04:06:59;5.40;99.90
11304;DHT22;5707;49.588;12.148;2024-03-02T04:09:24;5.40;99.90
11304;DHT22;5707;49.588;12.148;2024-03-02T04:11:50;5.40;99.90
11304;DHT22;5707;49.588;12.148;2024-03-02T04:14:16;5.40;99.90
11304;DHT22;5707;49.588;12.148;2024-03-02T04:16:42;5.40;99.90
11304;DHT22;5707;49.588;12.148;2024-03-02T04:19:08;5.40;99.90
11304;DHT22;5707;49.588;12.148;2024-03-02T04:21:33;5.40;99.90
11304;DHT22;5707;49.588;12.148;2024-03-02T04:23:59;5.40;99.90
11304;DHT22;5707;49.588;12.148;2024-03-02T04:26:25;5.40;99.90
11304;DHT22;5707;49.588;12.148;2024-03-02T04:28:51;5.40;99.90
11304;DHT22;5707;49.588;12.148;2024-03-02T04:31:17;5.40;99.90
11304;DHT22;5707;49.588;12.148;2024-03-02T04:33:43;5.40;99.90
11304;DHT22;5707;49.588;12.148;2024-03-02T04:36:08;5.30;99.90
11304;DHT22;5707;49.588;12.148;2024-03-02T04:38:38;5.30;99.90
11304;DHT22;5707;49.588;12.148;2024-03-02T04:41:04;5.40;99.90
11304;DHT22;5707;49.588;12.148;2024-03-02T04:43:31;5.30;99.90
11304;DHT22;5707;49.588;12.148;2024-03-02T04:45:58;5.30;99.90
11304;DHT22;5707;49.588;12.148;2024-03-02T04:48:23;5.30;99.90
11304;DHT22;5707;49.588;12.148;2024-03-02T04:50:49;5.30;99.90
11304;DHT22;5707;49.588;12.148;2024-03-02T04:53:14;5.30;99.90
11304;DHT22;5707;49.588;12.148;2024-03-02T04:55:40;5.30;99.90
11304;DHT22;5707;49.588;12.148;2024-03-02T04:58:06;5.30;99.90
11304;DHT22;5707;49.588;12.148;2024-03-02T05:00:32;5.20;99.90
11304;DHT22;5707;49.588;12.148;2024-03-02T05:02:58;5.20;99.90
11304;DHT22;5707;49.588;12.148;2024-03-02T05:05:23;5.30;99.90
11304;DHT22;5707;49.588;12.148;2024-03-02T05:07:49;5.30;99.90
11304;DHT22;5707;49.588;12.148;2024-03-02T05:10:14;5.30;99.90
11304;DHT22;5707;49.588;12.148;2024-03-02T05:12:41;5.30;99.90
11304;DHT22;5707;49.588;12.148;2024-03-02T05:15:13;5.30;99.90
11304;DHT22;5707;49.588;12.148;2024-03-02T05:17:40;5.30;99.90
11304;DHT22;5707;49.588;12.148;2024-03-02T05:20:09;5.30;99.90
11304;DHT22;5707;49.588;12.148;2024-03-02T05:22:34;5.40;99.90
11304;DHT22;5707;49.588;12.148;2024-03-02T05:25:01;5.40;99.90
11304;DHT22;5707;49.588;12.148;2024-03-02T05:27:27;5.40;99.90
11304;DHT22;5707;49.588;12.148;2024-03-02T05:29:53;5.40;99.90
11304;DHT22;5707;49.588;12.148;2024-03-02T05:32:18;5.40;99.90
11304;DHT22;5707;49.588;12.148;2024-03-02T05:34:44;5.40;99.90
11304;DHT22;5707;49.588;12.148;2024-03-02T05:37:09;5.40;99.90
11304;DHT22;5707;49.588;12.148;2024-03-02T05:39:35;5.40;99.90
11304;DHT22;5707;49.588;12.148;2024-03-02T05:42:00;5.40;99.90
11304;DHT22;5707;49.588;12.148;2024-03-02T05:44:26;5.40;99.90
11304;DHT22;5707;49.588;12.148;2024-03-02T05:46:51;5.40;99.90
11304;DHT22;5707;49.588;12.148;2024-03-02T05:49:18;5.40;99.90
11304;DHT22;5707;49.588;12.148;2024-03-02T05:51:43;5.40;99.90
11304;DHT22;5707;49.588;12.148;2024-03-02T05:54:09;5.40;99.90
11304;DHT22;5707;49.588;12.148;2024-03-02T05:56:35;5.30;99.90
11304;DHT22;5707;49.588;12.148;2024-03-02T05:59:00;5.30;99.90
11304;DHT22;5707;49.588;12.148;2024-03-02T06:01:43;5.30;99.90
11304;DHT22;5707;49.588;12.148;2024-03-02T06:04:11;5.40;99.90
11304;DHT22;5707;49.588;12.148;2024-03-02T06:06:36;5.40;99.90
11304;DHT22;5707;49.588;12.148;2024-03-02T06:09:03;5.40;99.90
11304;DHT22;5707;49.588;12.148;2024-03-02T06:11:38;5.40;99.90
11304;DHT22;5707;49.588;12.148;2024-03-02T06:14:04;5.40;99.90
11304;DHT22;5707;49.588;12.148;2024-03-02T06:16:30;5.40;99.90
11304;DHT22;5707;49.588;12.148;2024-03-02T06:18:56;5.50;99.90
11304;DHT22;5707;49.588;12.148;2024-03-02T06:21:23;5.50;99.90
11304;DHT22;5707;49.588;12.148;2024-03-02T06:23:49;5.60;99.90
11304;DHT22;5707;49.588;12.148;2024-03-02T06:26:14;5.70;99.90
11304;DHT22;5707;49.588;12.148;2024-03-02T06:28:40;5.80;99.90
11304;DHT22;5707;49.588;12.148;2024-03-02T06:31:05;5.90;99.90
11304;DHT22;5707;49.588;12.148;2024-03-02T06:33:31;5.90;99.90
11304;DHT22;5707;49.588;12.148;2024-03-02T06:35:56;6.00;99.90
11304;DHT22;5707;49.588;12.148;2024-03-02T06:38:22;6.10;99.90
11304;DHT22;5707;49.588;12.148;2024-03-02T06:40:48;6.20;99.90
11304;DHT22;5707;49.588;12.148;2024-03-02T06:43:13;6.30;99.90
11304;DHT22;5707;49.588;12.148;2024-03-02T06:45:39;6.30;99.90
11304;DHT22;5707;49.588;12.148;2024-03-02T06:48:04;6.40;99.90
11304;DHT22;5707;49.588;12.148;2024-03-02T06:50:30;6.50;99.90
11304;DHT22;5707;49.588;12.148;2024-03-02T06:52:56;6.60;99.90
11304;DHT22;5707;49.588;12.148;2024-03-02T06:55:22;6.70;99.90
11304;DHT22;5707;49.588;12.148;2024-03-02T06:57:47;6.80;99.90
11304;DHT22;5707;49.588;12.148;2024-03-02T07:00:13;6.90;99.90
11304;DHT22;5707;49.588;12.148;2024-03-02T07:02:39;7.10;99.90
11304;DHT22;5707;49.588;12.148;2024-03-02T07:05:07;7.20;99.90
11304;DHT22;5707;49.588;12.148;2024-03-02T07:07:34;7.50;99.90
11304;DHT22;5707;49.588;12.148;2024-03-02T07:10:00;7.60;99.90
11304;DHT22;5707;49.588;12.148;2024-03-02T07:12:26;7.80;99.90
11304;DHT22;5707;49.588;12.148;2024-03-02T07:14:51;8.10;99.90
11304;DHT22;5707;49.588;12.148;2024-03-02T07:17:30;8.30;99.90
11304;DHT22;5707;49.588;12.148;2024-03-02T07:19:56;8.50;99.90
11304;DHT22;5707;49.588;12.148;2024-03-02T07:22:22;8.70;99.90
11304;DHT22;5707;49.588;12.148;2024-03-02T07:24:48;8.80;99.90
11304;DHT22;5707;49.588;12.148;2024-03-02T07:27:13;9.00;99.90
11304;DHT22;5707;49.588;12.148;2024-03-02T07:29:40;9.10;99.90
11304;DHT22;5707;49.588;12.148;2024-03-02T07:32:08;9.00;99.90
11304;DHT22;5707;49.588;12.148;2024-03-02T07:34:33;9.00;99.90
11304;DHT22;5707;49.588;12.148;2024-03-02T07:36:59;9.00;99.90
11304;DHT22;5707;49.588;12.148;2024-03-02T07:39:25;9.00;99.90
11304;DHT22;5707;49.588;12.148;2024-03-02T07:41:51;8.90;99.90
11304;DHT22;5707;49.588;12.148;2024-03-02T07:44:16;9.00;99.90
11304;DHT22;5707;49.588;12.148;2024-03-02T07:46:44;9.10;99.90
11304;DHT22;5707;49.588;12.148;2024-03-02T07:49:12;9.30;99.90
11304;DHT22;5707;49.588;12.148;2024-03-02T07:51:39;9.20;99.90
11304;DHT22;5707;49.588;12.148;2024-03-02T07:54:05;9.00;99.90
11304;DHT22;5707;49.588;12.148;2024-03-02T07:56:30;8.90;99.90
11304;DHT22;5707;49.588;12.148;2024-03-02T07:58:56;9.00;99.90
11304;DHT22;5707;49.588;12.148;2024-03-02T08:01:29;9.00;99.90
11304;DHT22;5707;49.588;12.148;2024-03-02T08:03:58;9.10;99.90
11304;DHT22;5707;49.588;12.148;2024-03-02T08:06:27;9.30;99.90
11304;DHT22;5707;49.588;12.148;2024-03-02T08:09:00;9.30;99.90
11304;DHT22;5707;49.588;12.148;2024-03-02T08:11:26;9.40;99.90
11304;DHT22;5707;49.588;12.148;2024-03-02T08:13:56;9.50;99.90
11304;DHT22;5707;49.588;12.148;2024-03-02T08:16:23;9.60;99.90
11304;DHT22;5707;49.588;12.148;2024-03-02T08:18:49;9.60;99.90
11304;DHT22;5707;49.588;12.148;2024-03-02T08:21:15;9.80;99.90
11304;DHT22;5707;49.588;12.148;2024-03-02T08:23:42;10.20;99.90
11304;DHT22;5707;49.588;12.148;2024-03-02T08:26:09;10.60;99.90
11304;DHT22;5707;49.588;12.148;2024-03-02T08:28:35;10.80;99.90
11304;DHT22;5707;49.588;12.148;2024-03-02T08:31:03;10.90;99.90
11304;DHT22;5707;49.588;12.148;2024-03-02T08:33:28;11.10;99.90
11304;DHT22;5707;49.588;12.148;2024-03-02T08:35:54;11.60;99.90
11304;DHT22;5707;49.588;12.148;2024-03-02T08:38:19;11.70;99.90
11304;DHT22;5707;49.588;12.148;2024-03-02T08:40:45;11.50;99.90
11304;DHT22;5707;49.588;12.148;2024-03-02T08:43:11;11.40;99.90
11304;DHT22;5707;49.588;12.148;2024-03-02T08:45:37;11.00;99.90
11304;DHT22;5707;49.588;12.148;2024-03-02T08:48:06;10.80;99.90
11304;DHT22;5707;49.588;12.148;2024-03-02T08:50:31;10.50;99.90
11304;DHT22;5707;49.588;12.148;2024-03-02T08:52:57;10.10;99.90
11304;DHT22;5707;49.588;12.148;2024-03-02T08:55:22;9.70;99.90
11304;DHT22;5707;49.588;12.148;2024-03-02T08:57:48;9.50;99.90
11304;DHT22;5707;49.588;12.148;2024-03-02T09:00:16;9.80;99.90
11304;DHT22;5707;49.588;12.148;2024-03-02T09:02:44;10.20;99.90
11304;DHT22;5707;49.588;12.148;2024-03-02T09:05:10;10.90;99.90
11304;DHT22;5707;49.588;12.148;2024-03-02T09:07:35;11.60;99.90
11304;DHT22;5707;49.588;12.148;2024-03-02T09:10:01;11.90;99.90
11304;DHT22;5707;49.588;12.148;2024-03-02T09:12:26;12.00;99.90
11304;DHT22;5707;49.588;12.148;2024-03-02T09:14:52;12.30;99.90
11304;DHT22;5707;49.588;12.148;2024-03-02T09:17:17;12.50;99.90
11304;DHT22;5707;49.588;12.148;2024-03-02T09:19:43;12.40;99.90
11304;DHT22;5707;49.588;12.148;2024-03-02T09:22:09;12.40;99.90
11304;DHT22;5707;49.588;12.148;2024-03-02T09:24:35;12.70;99.90
11304;DHT22;5707;49.588;12.148;2024-03-02T09:27:00;12.70;99.90
11304;DHT22;5707;49.588;12.148;2024-03-02T09:29:26;12.80;99.90
11304;DHT22;5707;49.588;12.148;2024-03-02T09:31:51;12.50;99.90
11304;DHT22;5707;49.588;12.148;2024-03-02T09:34:17;12.20;99.90
11304;DHT22;5707;49.588;12.148;2024-03-02T09:36:43;11.80;99.90
11304;DHT22;5707;49.588;12.148;2024-03-02T09:39:09;11.20;99.90
11304;DHT22;5707;49.588;12.148;2024-03-02T09:41:38;10.90;99.90
11304;DHT22;5707;49.588;12.148;2024-03-02T09:44:04;10.70;99.90
11304;DHT22;5707;49.588;12.148;2024-03-02T09:46:30;10.50;99.90
11304;DHT22;5707;49.588;12.148;2024-03-02T09:48:56;10.40;99.90
11304;DHT22;5707;49.588;12.148;2024-03-02T09:51:22;10.40;99.90
11304;DHT22;5707;49.588;12.148;2024-03-02T09:53:48;10.40;99.90
11304;DHT22;5707;49.588;12.148;2024-03-02T09:56:14;10.50;99.90
11304;DHT22;5707;49.588;12.148;2024-03-02T09:58:41;10.60;99.90
11304;DHT22;5707;49.588;12.148;2024-03-02T10:01:08;10.70;99.90
11304;DHT22;5707;49.588;12.148;2024-03-02T10:03:36;11.20;99.90
11304;DHT22;5707;49.588;12.148;2024-03-02T10:08:46;11.20;99.90
11304;DHT22;5707;49.588;12.148;2024-03-02T10:11:30;11.30;99.90
11304;DHT22;5707;49.588;12.148;2024-03-02T10:14:09;11.30;99.90
11304;DHT22;5707;49.588;12.148;2024-03-02T10:16:43;11.60;99.90
11304;DHT22;5707;49.588;12.148;2024-03-02T10:19:22;12.10;99.90
11304;DHT22;5707;49.588;12.148;2024-03-02T10:21:52;12.10;99.90
11304;DHT22;5707;49.588;12.148;2024-03-02T10:24:19;11.70;99.90
11304;DHT22;5707;49.588;12.148;2024-03-02T10:26:45;11.70;99.90
11304;DHT22;5707;49.588;12.148;2024-03-02T10:29:11;11.60;99.90
11304;DHT22;5707;49.588;12.148;2024-03-02T10:31:41;11.60;99.90
11304;DHT22;5707;49.588;12.148;2024-03-02T10:34:08;11.80;99.90
11304;DHT22;5707;49.588;12.148;2024-03-02T10:36:35;11.80;99.90
11304;DHT22;5707;49.588;12.148;2024-03-02T10:39:04;11.90;99.90
11304;DHT22;5707;49.588;12.148;2024-03-02T10:41:33;12.00;99.90
11304;DHT22;5707;49.588;12.148;2024-03-02T10:43:59;12.20;99.90
11304;DHT22;5707;49.588;12.148;2024-03-02T10:46:31;12.50;99.90
11304;DHT22;5707;49.588;12.148;2024-03-02T10:48:57;12.70;99.90
11304;DHT22;5707;49.588;12.148;2024-03-02T10:51:27;12.90;99.90
11304;DHT22;5707;49.588;12.148;2024-03-02T10:53:54;13.00;99.90
11304;DHT22;5707;49.588;12.148;2024-03-02T10:56:29;13.10;99.90
11304;DHT22;5707;49.588;12.148;2024-03-02T10:59:17;13.40;99.90
11304;DHT22;5707;49.588;12.148;2024-03-02T11:01:47;13.50;99.90
11304;DHT22;5707;49.588;12.148;2024-03-02T11:04:13;13.80;98.40
11304;DHT22;5707;49.588;12.148;2024-03-02T11:06:48;13.80;98.40
11304;DHT22;5707;49.588;12.148;2024-03-02T11:09:14;13.70;98.10
11304;DHT22;5707;49.588;12.148;2024-03-02T11:11:43;13.60;98.90
11304;DHT22;5707;49.588;12.148;2024-03-02T11:14:14;13.60;98.00
11304;DHT22;5707;49.588;12.148;2024-03-02T11:16:42;13.40;97.80
11304;DHT22;5707;49.588;12.148;2024-03-02T11:19:13;13.40;97.90
11304;DHT22;5707;49.588;12.148;2024-03-02T11:21:39;13.00;98.50
11304;DHT22;5707;49.588;12.148;2024-03-02T11:24:37;12.60;99.40
11304;DHT22;5707;49.588;12.148;2024-03-02T11:27:07;12.20;99.90
11304;DHT22;5707;49.588;12.148;2024-03-02T11:32:17;11.60;99.90
11304;DHT22;5707;49.588;12.148;2024-03-02T11:34:45;11.40;99.90
11304;DHT22;5707;49.588;12.148;2024-03-02T11:37:19;11.30;99.90
11304;DHT22;5707;49.588;12.148;2024-03-02T11:39:49;11.20;99.90
11304;DHT22;5707;49.588;12.148;2024-03-02T11:42:16;11.10;99.90
11304;DHT22;5707;49.588;12.148;2024-03-02T11:44:46;11.10;99.90
11304;DHT22;5707;49.588;12.148;2024-03-02T11:47:16;11.20;99.90
11304;DHT22;5707;49.588;12.148;2024-03-02T11:52:13;11.70;99.90
11304;DHT22;5707;49.588;12.148;2024-03-02T11:54:40;12.10;99.90
11304;DHT22;5707;49.588;12.148;2024-03-02T11:57:14;12.20;99.90
11304;DHT22;5707;49.588;12.148;2024-03-02T11:59:41;12.30;99.90
11304;DHT22;5707;49.588;12.148;2024-03-02T12:02:06;12.20;99.90
11304;DHT22;5707;49.588;12.148;2024-03-02T12:04:38;12.30;99.90
11304;DHT22;5707;49.588;12.148;2024-03-02T12:07:03;12.40;99.90
11304;DHT22;5707;49.588;12.148;2024-03-02T12:09:29;12.60;99.90
11304;DHT22;5707;49.588;12.148;2024-03-02T12:14:29;12.80;99.40
11304;DHT22;5707;49.588;12.148;2024-03-02T12:16:55;12.80;98.90
11304;DHT22;5707;49.588;12.148;2024-03-02T12:19:21;12.90;98.60
11304;DHT22;5707;49.588;12.148;2024-03-02T12:21:47;12.90;98.10
11304;DHT22;5707;49.588;12.148;2024-03-02T12:24:12;12.70;97.70
11304;DHT22;5707;49.588;12.148;2024-03-02T12:26:38;12.60;98.10
11304;DHT22;5707;49.588;12.148;2024-03-02T12:29:04;12.50;98.20
11304;DHT22;5707;49.588;12.148;2024-03-02T12:31:29;12.40;98.20
11304;DHT22;5707;49.588;12.148;2024-03-02T12:33:55;12.60;98.10
11304;DHT22;5707;49.588;12.148;2024-03-02T12:36:21;13.10;97.60
11304;DHT22;5707;49.588;12.148;2024-03-02T12:38:47;13.60;96.40
11304;DHT22;5707;49.588;12.148;2024-03-02T12:41:16;13.60;96.40
11304;DHT22;5707;49.588;12.148;2024-03-02T12:43:42;13.90;96.00
11304;DHT22;5707;49.588;12.148;2024-03-02T12:46:07;14.40;95.30
11304;DHT22;5707;49.588;12.148;2024-03-02T12:48:34;14.50;94.20
11304;DHT22;5707;49.588;12.148;2024-03-02T12:51:00;14.40;94.30
11304;DHT22;5707;49.588;12.148;2024-03-02T12:53:26;14.20;94.30
11304;DHT22;5707;49.588;12.148;2024-03-02T12:55:52;13.90;95.00
11304;DHT22;5707;49.588;12.148;2024-03-02T12:58:19;13.80;94.60
11304;DHT22;5707;49.588;12.148;2024-03-02T13:00:46;13.70;94.90
11304;DHT22;5707;49.588;12.148;2024-03-02T13:03:12;13.50;95.30
11304;DHT22;5707;49.588;12.148;2024-03-02T13:05:37;13.70;94.90
11304;DHT22;5707;49.588;12.148;2024-03-02T13:08:05;13.90;94.60
11304;DHT22;5707;49.588;12.148;2024-03-02T13:10:33;13.90;94.70
11304;DHT22;5707;49.588;12.148;2024-03-02T13:12:59;13.60;94.40
11304;DHT22;5707;49.588;12.148;2024-03-02T13:15:29;13.90;94.30
11304;DHT22;5707;49.588;12.148;2024-03-02T13:17:58;14.10;94.40
11304;DHT22;5707;49.588;12.148;2024-03-02T13:20:30;14.40;93.10
11304;DHT22;5707;49.588;12.148;2024-03-02T13:22:57;14.70;92.40
11304;DHT22;5707;49.588;12.148;2024-03-02T13:25:22;14.90;92.00
11304;DHT22;5707;49.588;12.148;2024-03-02T13:27:48;14.90;91.70
11304;DHT22;5707;49.588;12.148;2024-03-02T13:30:13;15.00;91.80
11304;DHT22;5707;49.588;12.148;2024-03-02T13:32:39;15.10;91.60
11304;DHT22;5707;49.588;12.148;2024-03-02T13:35:04;15.10;91.40
11304;DHT22;5707;49.588;12.148;2024-03-02T13:37:30;14.90;91.10
11304;DHT22;5707;49.588;12.148;2024-03-02T13:39:56;14.80;91.80
11304;DHT22;5707;49.588;12.148;2024-03-02T13:42:21;14.70;91.90
11304;DHT22;5707;49.588;12.148;2024-03-02T13:44:47;14.40;92.00
11304;DHT22;5707;49.588;12.148;2024-03-02T13:47:15;14.20;92.60
11304;DHT22;5707;49.588;12.148;2024-03-02T13:49:40;14.10;93.10
11304;DHT22;5707;49.588;12.148;2024-03-02T13:52:09;14.20;92.50
11304;DHT22;5707;49.588;12.148;2024-03-02T13:54:43;14.40;92.70
11304;DHT22;5707;49.588;12.148;2024-03-02T13:57:10;14.40;92.80
11304;DHT22;5707;49.588;12.148;2024-03-02T13:59:36;14.40;92.30
11304;DHT22;5707;49.588;12.148;2024-03-02T14:02:02;14.20;92.30
11304;DHT22;5707;49.588;12.148;2024-03-02T14:04:32;14.10;93.00
11304;DHT22;5707;49.588;12.148;2024-03-02T14:06:59;13.90;93.40
11304;DHT22;5707;49.588;12.148;2024-03-02T14:09:25;13.70;93.40
11304;DHT22;5707;49.588;12.148;2024-03-02T14:11:51;13.50;94.40
11304;DHT22;5707;49.588;12.148;2024-03-02T14:14:17;13.40;95.10
11304;DHT22;5707;49.588;12.148;2024-03-02T14:16:43;13.40;95.10
11304;DHT22;5707;49.588;12.148;2024-03-02T14:19:10;13.40;94.40
11304;DHT22;5707;49.588;12.148;2024-03-02T14:21:37;13.40;94.40
11304;DHT22;5707;49.588;12.148;2024-03-02T14:24:02;13.40;94.80
11304;DHT22;5707;49.588;12.148;2024-03-02T14:26:28;13.50;94.40
11304;DHT22;5707;49.588;12.148;2024-03-02T14:28:54;13.70;94.40
11304;DHT22;5707;49.588;12.148;2024-03-02T14:31:20;14.00;94.10
11304;DHT22;5707;49.588;12.148;2024-03-02T14:33:46;14.00;93.00
11304;DHT22;5707;49.588;12.148;2024-03-02T14:36:12;13.90;93.00
11304;DHT22;5707;49.588;12.148;2024-03-02T14:38:38;13.80;93.50
11304;DHT22;5707;49.588;12.148;2024-03-02T14:41:04;13.70;93.70
11304;DHT22;5707;49.588;12.148;2024-03-02T14:43:30;13.50;94.10
11304;DHT22;5707;49.588;12.148;2024-03-02T14:45:56;13.30;94.50
11304;DHT22;5707;49.588;12.148;2024-03-02T14:48:22;13.20;95.00
11304;DHT22;5707;49.588;12.148;2024-03-02T14:50:48;12.90;95.60
11304;DHT22;5707;49.588;12.148;2024-03-02T14:53:13;12.70;96.00
11304;DHT22;5707;49.588;12.148;2024-03-02T14:55:39;12.50;96.70
11304;DHT22;5707;49.588;12.148;2024-03-02T14:58:05;12.30;97.80
11304;DHT22;5707;49.588;12.148;2024-03-02T15:00:30;12.20;98.50
11304;DHT22;5707;49.588;12.148;2024-03-02T15:02:56;12.00;99.10
11304;DHT22;5707;49.588;12.148;2024-03-02T15:05:22;11.80;99.20
11304;DHT22;5707;49.588;12.148;2024-03-02T15:07:47;11.60;99.70
11304;DHT22;5707;49.588;12.148;2024-03-02T15:10:13;11.60;99.90
11304;DHT22;5707;49.588;12.148;2024-03-02T15:12:38;11.40;99.90
11304;DHT22;5707;49.588;12.148;2024-03-02T15:15:04;11.30;99.90
11304;DHT22;5707;49.588;12.148;2024-03-02T15:17:30;11.10;99.90
11304;DHT22;5707;49.588;12.148;2024-03-02T15:19:56;11.00;99.90
11304;DHT22;5707;49.588;12.148;2024-03-02T15:22:21;10.90;99.90
11304;DHT22;5707;49.588;12.148;2024-03-02T15:24:47;10.80;99.90
11304;DHT22;5707;49.588;12.148;2024-03-02T15:27:12;10.70;99.90
11304;DHT22;5707;49.588;12.148;2024-03-02T15:29:38;10.60;99.90
11304;DHT22;5707;49.588;12.148;2024-03-02T15:32:04;10.50;99.90
11304;DHT22;5707;49.588;12.148;2024-03-02T15:34:33;10.40;99.90
11304;DHT22;5707;49.588;12.148;2024-03-02T15:36:59;10.30;99.90
11304;DHT22;5707;49.588;12.148;2024-03-02T15:39:25;10.10;99.90
11304;DHT22;5707;49.588;12.148;2024-03-02T15:41:51;10.00;99.90
11304;DHT22;5707;49.588;12.148;2024-03-02T15:44:17;9.80;99.90
11304;DHT22;5707;49.588;12.148;2024-03-02T15:46:43;9.60;99.90
11304;DHT22;5707;49.588;12.148;2024-03-02T15:49:09;9.40;99.90